sensor_id;sensor_type;location;lat;lon;timestamp;pressure;altitude;pressure_sealevel;temperature;humidity
79690;BME280;69156;55.932;-3.238;2023-12-28T00:00:22;97744.09;;;6.79;100.00
79690;BME280;69156;55.932;-3.238;2023-12-28T00:02:47;97742.88;;;6.89;100.00
79690;BME280;69156;55.932;-3.238;2023-12-28T00:05:12;97741.65;;;6.91;100.00
79690;BME280;69156;55.932;-3.238;2023-12-28T00:07:38;97744.43;;;6.96;100.00
79690;BME280;69156;55.932;-3.238;2023-12-28T00:10:04;97734.07;;;7.15;100.00
79690;BME280;69156;55.932;-3.238;2023-12-28T00:12:29;97732.47;;;7.18;100.00
79690;BME280;69156;55.932;-3.238;2023-12-28T00:14:55;97737.76;;;7.11;100.00
79690;BME280;69156;55.932;-3.238;2023-12-28T00:17:20;97740.39;;;7.06;100.00
79690;BME280;69156;55.932;-3.238;2023-12-28T00:19:46;97741.17;;;7.20;100.00
79690;BME280;69156;55.932;-3.238;2023-12-28T00:22:11;97728.83;;;7.30;100.00
79690;BME280;69156;55.932;-3.238;2023-12-28T00:24:36;97727.64;;;7.36;100.00
79690;BME280;69156;55.932;-3.238;2023-12-28T00:27:03;97731.57;;;7.35;100.00
79690;BME280;69156;55.932;-3.238;2023-12-28T00:29:28;97721.15;;;7.35;100.00
79690;BME280;69156;55.932;-3.238;2023-12-28T00:31:54;97724.27;;;7.35;100.00
79690;BME280;69156;55.932;-3.238;2023-12-28T00:34:20;97705.10;;;7.30;100.00
79690;BME280;69156;55.932;-3.238;2023-12-28T00:36:45;97729.91;;;7.35;100.00
79690;BME280;69156;55.932;-3.238;2023-12-28T00:39:11;97724.18;;;7.14;100.00
79690;BME280;69156;55.932;-3.238;2023-12-28T00:41:37;97726.95;;;7.12;100.00
79690;BME280;69156;55.932;-3.238;2023-12-28T00:44:03;97725.79;;;7.14;100.00
79690;BME280;69156;55.932;-3.238;2023-12-28T00:46:28;97736.51;;;7.01;100.00
79690;BME280;69156;55.932;-3.238;2023-12-28T00:48:54;97736.76;;;7.07;100.00
79690;BME280;69156;55.932;-3.238;2023-12-28T00:51:20;97737.22;;;6.98;100.00
79690;BME280;69156;55.932;-3.238;2023-12-28T00:53:45;97747.74;;;7.07;100.00
79690;BME280;69156;55.932;-3.238;2023-12-28T00:56:11;97755.11;;;6.86;100.00
79690;BME280;69156;55.932;-3.238;2023-12-28T00:58:39;97762.10;;;6.96;100.00
79690;BME280;69156;55.932;-3.238;2023-12-28T01:01:02;97761.40;;;6.98;100.00
79690;BME280;69156;55.932;-3.238;2023-12-28T01:03:28;97771.53;;;6.87;100.00
79690;BME280;69156;55.932;-3.238;2023-12-28T01:05:53;97786.51;;;6.79;100.00
79690;BME280;69156;55.932;-3.238;2023-12-28T01:08:19;97793.65;;;6.84;100.00
79690;BME280;69156;55.932;-3.238;2023-12-28T01:10:44;97788.41;;;6.90;100.00
79690;BME280;69156;55.932;-3.238;2023-12-28T01:13:10;97784.29;;;7.09;100.00
79690;BME280;69156;55.932;-3.238;2023-12-28T01:15:36;97796.46;;;6.83;100.00
79690;BME280;69156;55.932;-3.238;2023-12-28T01:18:02;97806.40;;;7.05;100.00
79690;BME280;69156;55.932;-3.238;2023-12-28T01:20:27;97812.47;;;6.89;100.00
79690;BME280;69156;55.932;-3.238;2023-12-28T01:22:53;97814.39;;;6.92;100.00
79690;BME280;69156;55.932;-3.238;2023-12-28T01:25:19;97820.80;;;7.00;100.00
79690;BME280;69156;55.932;-3.238;2023-12-28T01:27:45;97819.61;;;6.95;100.00
79690;BME280;69156;55.932;-3.238;2023-12-28T01:30:11;97822.44;;;7.00;100.00
79690;BME280;69156;55.932;-3.238;2023-12-28T01:32:37;97822.90;;;6.83;100.00
79690;BME280;69156;55.932;-3.238;2023-12-28T01:35:03;97834.66;;;6.85;100.00
79690;BME280;69156;55.932;-3.238;2023-12-28T01:37:29;97845.93;;;7.10;100.00
79690;BME280;69156;55.932;-3.238;2023-12-28T01:39:55;97851.40;;;7.00;100.00
79690;BME280;69156;55.932;-3.238;2023-12-28T01:42:22;97856.00;;;7.00;100.00
79690;BME280;69156;55.932;-3.238;2023-12-28T01:44:48;97858.00;;;6.92;100.00
79690;BME280;69156;55.932;-3.238;2023-12-28T01:47:14;97866.37;;;6.96;100.00
79690;BME280;69156;55.932;-3.238;2023-12-28T01:49:39;97868.09;;;7.10;100.00
79690;BME280;69156;55.932;-3.238;2023-12-28T01:52:06;97865.32;;;7.07;100.00
79690;BME280;69156;55.932;-3.238;2023-12-28T01:54:30;97862.95;;;7.10;100.00
79690;BME280;69156;55.932;-3.238;2023-12-28T01:56:58;97873.57;;;7.10;100.00
79690;BME280;69156;55.932;-3.238;2023-12-28T01:59:22;97881.08;;;7.13;100.00
79690;BME280;69156;55.932;-3.238;2023-12-28T02:01:49;97893.71;;;7.16;100.00
79690;BME280;69156;55.932;-3.238;2023-12-28T02:04:15;97901.23;;;7.12;100.00
79690;BME280;69156;55.932;-3.238;2023-12-28T02:06:41;97915.54;;;7.08;100.00
79690;BME280;69156;55.932;-3.238;2023-12-28T02:09:06;97922.93;;;7.16;100.00
79690;BME280;69156;55.932;-3.238;2023-12-28T02:11:32;97923.59;;;7.05;100.00
79690;BME280;69156;55.932;-3.238;2023-12-28T02:13:58;97929.70;;;7.28;100.00
79690;BME280;69156;55.932;-3.238;2023-12-28T02:16:28;97929.45;;;7.26;100.00
79690;BME280;69156;55.932;-3.238;2023-12-28T02:18:50;97929.45;;;7.27;100.00
79690;BME280;69156;55.932;-3.238;2023-12-28T02:21:15;97932.93;;;7.39;100.00
79690;BME280;69156;55.932;-3.238;2023-12-28T02:23:39;97939.73;;;7.31;100.00
79690;BME280;69156;55.932;-3.238;2023-12-28T02:26:05;97938.65;;;7.33;100.00
79690;BME280;69156;55.932;-3.238;2023-12-28T02:28:31;97942.07;;;7.32;100.00
79690;BME280;69156;55.932;-3.238;2023-12-28T02:30:59;97943.84;;;7.25;100.00
79690;BME280;69156;55.932;-3.238;2023-12-28T02:33:26;97948.50;;;7.25;100.00
79690;BME280;69156;55.932;-3.238;2023-12-28T02:35:52;97950.02;;;7.25;100.00
79690;BME280;69156;55.932;-3.238;2023-12-28T02:38:14;97955.88;;;7.26;100.00
79690;BME280;69156;55.932;-3.238;2023-12-28T02:40:40;97954.41;;;7.16;100.00
79690;BME280;69156;55.932;-3.238;2023-12-28T02:43:05;97953.27;;;7.27;100.00
79690;BME280;69156;55.932;-3.238;2023-12-28T02:45:29;97959.05;;;7.25;100.00
79690;BME280;69156;55.932;-3.238;2023-12-28T02:47:55;97964.76;;;7.21;100.00
79690;BME280;69156;55.932;-3.238;2023-12-28T02:50:21;97959.05;;;7.26;100.00
79690;BME280;69156;55.932;-3.238;2023-12-28T02:52:47;97972.31;;;7.17;100.00
79690;BME280;69156;55.932;-3.238;2023-12-28T02:55:13;97971.77;;;7.18;100.00
79690;BME280;69156;55.932;-3.238;2023-12-28T02:57:39;97976.45;;;7.16;100.00
79690;BME280;69156;55.932;-3.238;2023-12-28T03:00:06;97978.28;;;7.20;100.00
79690;BME280;69156;55.932;-3.238;2023-12-28T03:02:29;97981.01;;;7.23;100.00
79690;BME280;69156;55.932;-3.238;2023-12-28T03:04:55;97983.41;;;7.17;100.00
79690;BME280;69156;55.932;-3.238;2023-12-28T03:07:21;97979.37;;;7.13;100.00
79690;BME280;69156;55.932;-3.238;2023-12-28T03:09:46;97985.60;;;7.13;100.00
79690;BME280;69156;55.932;-3.238;2023-12-28T03:12:12;97993.25;;;7.12;100.00
79690;BME280;69156;55.932;-3.238;2023-12-28T03:14:38;97990.41;;;7.12;100.00
79690;BME280;69156;55.932;-3.238;2023-12-28T03:17:04;97998.87;;;7.13;100.00
79690;BME280;69156;55.932;-3.238;2023-12-28T03:19:29;97993.01;;;7.08;100.00
79690;BME280;69156;55.932;-3.238;2023-12-28T03:21:55;97999.04;;;7.29;100.00
79690;BME280;69156;55.932;-3.238;2023-12-28T03:24:21;97995.55;;;7.17;100.00
79690;BME280;69156;55.932;-3.238;2023-12-28T03:26:46;97996.31;;;7.21;100.00
79690;BME280;69156;55.932;-3.238;2023-12-28T03:29:12;98003.14;;;7.19;100.00
79690;BME280;69156;55.932;-3.238;2023-12-28T03:31:39;98005.70;;;7.13;100.00
79690;BME280;69156;55.932;-3.238;2023-12-28T03:34:03;98010.43;;;7.17;100.00
79690;BME280;69156;55.932;-3.238;2023-12-28T03:36:28;98018.54;;;7.19;100.00
79690;BME280;69156;55.932;-3.238;2023-12-28T03:38:54;98020.31;;;7.28;100.00
79690;BME280;69156;55.932;-3.238;2023-12-28T03:41:20;98023.08;;;7.21;100.00
79690;BME280;69156;55.932;-3.238;2023-12-28T03:43:45;98024.02;;;7.30;100.00
79690;BME280;69156;55.932;-3.238;2023-12-28T03:46:11;98025.88;;;7.30;100.00
79690;BME280;69156;55.932;-3.238;2023-12-28T03:48:38;98026.01;;;7.35;100.00
79690;BME280;69156;55.932;-3.238;2023-12-28T03:51:04;98023.20;;;7.38;100.00
79690;BME280;69156;55.932;-3.238;2023-12-28T03:53:30;98027.98;;;7.34;100.00
79690;BME280;69156;55.932;-3.238;2023-12-28T03:55:56;98020.67;;;7.36;100.00
79690;BME280;69156;55.932;-3.238;2023-12-28T03:58:22;98026.20;;;7.31;100.00
79690;BME280;69156;55.932;-3.238;2023-12-28T04:00:48;98032.63;;;7.26;100.00
79690;BME280;69156;55.932;-3.238;2023-12-28T04:03:14;98038.45;;;7.29;100.00
79690;BME280;69156;55.932;-3.238;2023-12-28T04:05:40;98033.06;;;7.24;100.00
79690;BME280;69156;55.932;-3.238;2023-12-28T04:08:06;98039.05;;;7.19;100.00
79690;BME280;69156;55.932;-3.238;2023-12-28T04:10:32;98041.32;;;7.26;100.00
79690;BME280;69156;55.932;-3.238;2023-12-28T04:12:57;98048.53;;;7.32;100.00
79690;BME280;69156;55.932;-3.238;2023-12-28T04:15:22;98055.41;;;7.31;100.00
79690;BME280;69156;55.932;-3.238;2023-12-28T04:17:48;98043.03;;;7.27;100.00
79690;BME280;69156;55.932;-3.238;2023-12-28T04:20:15;98041.04;;;7.28;100.00
79690;BME280;69156;55.932;-3.238;2023-12-28T04:22:40;98045.74;;;7.27;100.00
79690;BME280;69156;55.932;-3.238;2023-12-28T04:25:06;98055.76;;;7.38;100.00
79690;BME280;69156;55.932;-3.238;2023-12-28T04:27:31;98062.81;;;7.34;100.00
79690;BME280;69156;55.932;-3.238;2023-12-28T04:29:57;98055.83;;;7.37;100.00
79690;BME280;69156;55.932;-3.238;2023-12-28T04:32:23;98053.73;;;7.33;100.00
79690;BME280;69156;55.932;-3.238;2023-12-28T04:34:49;98048.85;;;7.42;100.00
79690;BME280;69156;55.932;-3.238;2023-12-28T04:37:15;98057.60;;;7.38;100.00
79690;BME280;69156;55.932;-3.238;2023-12-28T04:39:40;98062.94;;;7.29;100.00
79690;BME280;69156;55.932;-3.238;2023-12-28T04:42:06;98067.78;;;7.29;100.00
79690;BME280;69156;55.932;-3.238;2023-12-28T04:44:31;98077.64;;;7.30;100.00
79690;BME280;69156;55.932;-3.238;2023-12-28T04:46:56;98080.95;;;7.27;100.00
79690;BME280;69156;55.932;-3.238;2023-12-28T04:49:22;98077.99;;;7.22;100.00
79690;BME280;69156;55.932;-3.238;2023-12-28T04:51:47;98092.17;;;7.17;100.00
79690;BME280;69156;55.932;-3.238;2023-12-28T04:54:13;98082.22;;;7.34;100.00
79690;BME280;69156;55.932;-3.238;2023-12-28T04:56:39;98096.29;;;7.16;100.00
79690;BME280;69156;55.932;-3.238;2023-12-28T04:59:04;98095.92;;;7.04;100.00
79690;BME280;69156;55.932;-3.238;2023-12-28T05:01:30;98096.71;;;7.20;100.00
79690;BME280;69156;55.932;-3.238;2023-12-28T05:03:56;98101.88;;;7.06;100.00
79690;BME280;69156;55.932;-3.238;2023-12-28T05:06:22;98107.75;;;7.08;100.00
79690;BME280;69156;55.932;-3.238;2023-12-28T05:08:47;98113.56;;;7.05;100.00
79690;BME280;69156;55.932;-3.238;2023-12-28T05:11:13;98116.73;;;7.09;100.00
79690;BME280;69156;55.932;-3.238;2023-12-28T05:13:39;98109.99;;;7.06;100.00
79690;BME280;69156;55.932;-3.238;2023-12-28T05:16:06;98121.43;;;7.14;100.00
79690;BME280;69156;55.932;-3.238;2023-12-28T05:18:31;98119.60;;;7.10;100.00
79690;BME280;69156;55.932;-3.238;2023-12-28T05:20:56;98126.46;;;7.08;100.00
79690;BME280;69156;55.932;-3.238;2023-12-28T05:23:22;98126.45;;;7.13;100.00
79690;BME280;69156;55.932;-3.238;2023-12-28T05:25:47;98133.63;;;7.20;100.00
79690;BME280;69156;55.932;-3.238;2023-12-28T05:28:13;98124.18;;;7.17;100.00
79690;BME280;69156;55.932;-3.238;2023-12-28T05:30:38;98124.50;;;7.16;100.00
79690;BME280;69156;55.932;-3.238;2023-12-28T05:33:05;98132.26;;;7.17;100.00
79690;BME280;69156;55.932;-3.238;2023-12-28T05:35:30;98128.00;;;7.19;100.00
79690;BME280;69156;55.932;-3.238;2023-12-28T05:37:55;98136.44;;;7.21;100.00
79690;BME280;69156;55.932;-3.238;2023-12-28T05:40:20;98144.64;;;7.22;100.00
79690;BME280;69156;55.932;-3.238;2023-12-28T05:42:45;98141.66;;;7.14;100.00
79690;BME280;69156;55.932;-3.238;2023-12-28T05:45:11;98139.16;;;7.22;100.00
79690;BME280;69156;55.932;-3.238;2023-12-28T05:47:36;98149.34;;;7.22;100.00
79690;BME280;69156;55.932;-3.238;2023-12-28T05:50:02;98157.11;;;7.21;100.00
79690;BME280;69156;55.932;-3.238;2023-12-28T05:52:27;98145.92;;;7.26;100.00
79690;BME280;69156;55.932;-3.238;2023-12-28T05:54:53;98152.88;;;7.17;100.00
79690;BME280;69156;55.932;-3.238;2023-12-28T05:57:19;98150.93;;;7.28;100.00
79690;BME280;69156;55.932;-3.238;2023-12-28T05:59:44;98150.58;;;7.28;100.00
79690;BME280;69156;55.932;-3.238;2023-12-28T06:02:09;98149.16;;;7.24;100.00
79690;BME280;69156;55.932;-3.238;2023-12-28T06:04:35;98143.39;;;7.31;100.00
79690;BME280;69156;55.932;-3.238;2023-12-28T06:07:03;98143.04;;;7.35;100.00
79690;BME280;69156;55.932;-3.238;2023-12-28T06:09:26;98155.73;;;7.40;100.00
79690;BME280;69156;55.932;-3.238;2023-12-28T06:11:52;98155.29;;;7.36;100.00
79690;BME280;69156;55.932;-3.238;2023-12-28T06:14:18;98156.41;;;7.29;100.00
79690;BME280;69156;55.932;-3.238;2023-12-28T06:16:44;98161.10;;;7.48;100.00
79690;BME280;69156;55.932;-3.238;2023-12-28T06:19:10;98163.11;;;7.46;100.00
79690;BME280;69156;55.932;-3.238;2023-12-28T06:21:35;98169.91;;;7.54;100.00
79690;BME280;69156;55.932;-3.238;2023-12-28T06:24:02;98180.30;;;7.46;100.00
79690;BME280;69156;55.932;-3.238;2023-12-28T06:26:27;98192.63;;;7.47;100.00
79690;BME280;69156;55.932;-3.238;2023-12-28T06:28:52;98198.79;;;7.31;100.00
79690;BME280;69156;55.932;-3.238;2023-12-28T06:31:17;98206.43;;;7.38;100.00
79690;BME280;69156;55.932;-3.238;2023-12-28T06:33:43;98211.95;;;7.38;100.00
79690;BME280;69156;55.932;-3.238;2023-12-28T06:36:11;98217.41;;;7.32;100.00
79690;BME280;69156;55.932;-3.238;2023-12-28T06:38:35;98221.99;;;7.29;100.00
79690;BME280;69156;55.932;-3.238;2023-12-28T06:41:00;98236.96;;;7.39;100.00
79690;BME280;69156;55.932;-3.238;2023-12-28T06:43:26;98245.59;;;7.40;100.00
79690;BME280;69156;55.932;-3.238;2023-12-28T06:45:52;98251.51;;;7.39;100.00
79690;BME280;69156;55.932;-3.238;2023-12-28T06:48:18;98255.46;;;7.25;100.00
79690;BME280;69156;55.932;-3.238;2023-12-28T06:50:43;98262.78;;;7.39;100.00
79690;BME280;69156;55.932;-3.238;2023-12-28T06:53:09;98257.85;;;7.35;100.00
79690;BME280;69156;55.932;-3.238;2023-12-28T06:55:34;98249.68;;;7.26;100.00
79690;BME280;69156;55.932;-3.238;2023-12-28T06:57:59;98261.20;;;7.29;100.00
79690;BME280;69156;55.932;-3.238;2023-12-28T07:00:25;98262.16;;;7.21;100.00
79690;BME280;69156;55.932;-3.238;2023-12-28T07:02:51;98259.06;;;7.15;100.00
79690;BME280;69156;55.932;-3.238;2023-12-28T07:05:17;98262.26;;;7.25;100.00
79690;BME280;69156;55.932;-3.238;2023-12-28T07:07:42;98256.55;;;7.28;100.00
79690;BME280;69156;55.932;-3.238;2023-12-28T07:10:09;98261.63;;;7.25;100.00
79690;BME280;69156;55.932;-3.238;2023-12-28T07:12:35;98263.28;;;7.22;100.00
79690;BME280;69156;55.932;-3.238;2023-12-28T07:15:01;98263.99;;;7.28;100.00
79690;BME280;69156;55.932;-3.238;2023-12-28T07:17:27;98270.13;;;7.20;100.00
79690;BME280;69156;55.932;-3.238;2023-12-28T07:19:53;98263.05;;;7.22;100.00
79690;BME280;69156;55.932;-3.238;2023-12-28T07:22:19;98253.24;;;7.28;100.00
79690;BME280;69156;55.932;-3.238;2023-12-28T07:24:45;98255.34;;;7.21;100.00
79690;BME280;69156;55.932;-3.238;2023-12-28T07:27:11;98261.43;;;7.24;100.00
79690;BME280;69156;55.932;-3.238;2023-12-28T07:29:37;98245.45;;;7.24;100.00
79690;BME280;69156;55.932;-3.238;2023-12-28T07:32:04;98245.01;;;7.19;100.00
79690;BME280;69156;55.932;-3.238;2023-12-28T07:34:29;98245.93;;;7.15;100.00
79690;BME280;69156;55.932;-3.238;2023-12-28T07:36:54;98241.69;;;7.29;100.00
79690;BME280;69156;55.932;-3.238;2023-12-28T07:39:20;98239.23;;;7.27;100.00
79690;BME280;69156;55.932;-3.238;2023-12-28T07:41:45;98238.46;;;7.29;100.00
79690;BME280;69156;55.932;-3.238;2023-12-28T07:44:11;98231.09;;;7.28;100.00
79690;BME280;69156;55.932;-3.238;2023-12-28T07:46:37;98226.49;;;7.31;100.00
79690;BME280;69156;55.932;-3.238;2023-12-28T07:49:03;98226.46;;;7.25;100.00
79690;BME280;69156;55.932;-3.238;2023-12-28T07:51:29;98222.97;;;7.23;100.00
79690;BME280;69156;55.932;-3.238;2023-12-28T07:53:55;98218.52;;;7.16;100.00
79690;BME280;69156;55.932;-3.238;2023-12-28T07:56:20;98225.68;;;7.21;100.00
79690;BME280;69156;55.932;-3.238;2023-12-28T07:58:45;98226.16;;;7.27;100.00
79690;BME280;69156;55.932;-3.238;2023-12-28T08:01:11;98224.30;;;7.37;100.00
79690;BME280;69156;55.932;-3.238;2023-12-28T08:03:36;98225.68;;;7.31;100.00
79690;BME280;69156;55.932;-3.238;2023-12-28T08:06:02;98224.13;;;7.34;100.00
79690;BME280;69156;55.932;-3.238;2023-12-28T08:08:27;98211.48;;;7.26;100.00
79690;BME280;69156;55.932;-3.238;2023-12-28T08:10:52;98218.40;;;7.33;100.00
79690;BME280;69156;55.932;-3.238;2023-12-28T08:13:19;98214.45;;;7.34;100.00
79690;BME280;69156;55.932;-3.238;2023-12-28T08:15:44;98210.28;;;7.37;100.00
79690;BME280;69156;55.932;-3.238;2023-12-28T08:18:10;98221.04;;;7.34;100.00
79690;BME280;69156;55.932;-3.238;2023-12-28T08:20:36;98213.75;;;7.35;100.00
79690;BME280;69156;55.932;-3.238;2023-12-28T08:23:02;98219.90;;;7.37;100.00
79690;BME280;69156;55.932;-3.238;2023-12-28T08:25:28;98217.00;;;7.46;100.00
79690;BME280;69156;55.932;-3.238;2023-12-28T08:27:55;98202.95;;;7.38;100.00
79690;BME280;69156;55.932;-3.238;2023-12-28T08:30:21;98201.75;;;7.42;100.00
79690;BME280;69156;55.932;-3.238;2023-12-28T08:32:47;98207.47;;;7.52;100.00
79690;BME280;69156;55.932;-3.238;2023-12-28T08:35:12;98196.95;;;7.47;100.00
79690;BME280;69156;55.932;-3.238;2023-12-28T08:37:37;98194.81;;;7.61;100.00
79690;BME280;69156;55.932;-3.238;2023-12-28T08:40:03;98177.42;;;7.58;100.00
79690;BME280;69156;55.932;-3.238;2023-12-28T08:42:28;98190.93;;;7.56;100.00
79690;BME280;69156;55.932;-3.238;2023-12-28T08:44:54;98192.84;;;7.68;100.00
79690;BME280;69156;55.932;-3.238;2023-12-28T08:47:19;98186.53;;;7.81;100.00
79690;BME280;69156;55.932;-3.238;2023-12-28T08:49:45;98190.66;;;7.81;100.00
79690;BME280;69156;55.932;-3.238;2023-12-28T08:52:10;98180.87;;;7.77;100.00
79690;BME280;69156;55.932;-3.238;2023-12-28T08:54:36;98171.69;;;7.73;100.00
79690;BME280;69156;55.932;-3.238;2023-12-28T08:57:02;98177.36;;;7.76;100.00
79690;BME280;69156;55.932;-3.238;2023-12-28T08:59:27;98176.68;;;7.84;100.00
79690;BME280;69156;55.932;-3.238;2023-12-28T09:01:53;98168.71;;;7.84;100.00
79690;BME280;69156;55.932;-3.238;2023-12-28T09:04:18;98159.34;;;8.02;100.00
79690;BME280;69156;55.932;-3.238;2023-12-28T09:06:43;98156.27;;;7.90;100.00
79690;BME280;69156;55.932;-3.238;2023-12-28T09:09:09;98148.87;;;7.87;100.00
79690;BME280;69156;55.932;-3.238;2023-12-28T09:11:35;98155.55;;;7.99;100.00
79690;BME280;69156;55.932;-3.238;2023-12-28T09:14:00;98154.17;;;7.84;100.00
79690;BME280;69156;55.932;-3.238;2023-12-28T09:16:25;98155.81;;;7.94;100.00
79690;BME280;69156;55.932;-3.238;2023-12-28T09:18:50;98157.02;;;7.90;100.00
79690;BME280;69156;55.932;-3.238;2023-12-28T09:21:15;98151.33;;;7.91;100.00
79690;BME280;69156;55.932;-3.238;2023-12-28T09:23:41;98165.00;;;8.27;100.00
79690;BME280;69156;55.932;-3.238;2023-12-28T09:26:06;98170.48;;;7.97;100.00
79690;BME280;69156;55.932;-3.238;2023-12-28T09:28:32;98168.63;;;8.14;100.00
79690;BME280;69156;55.932;-3.238;2023-12-28T09:30:57;98173.33;;;8.12;100.00
79690;BME280;69156;55.932;-3.238;2023-12-28T09:33:22;98158.40;;;8.14;100.00
79690;BME280;69156;55.932;-3.238;2023-12-28T09:35:47;98159.12;;;8.07;100.00
79690;BME280;69156;55.932;-3.238;2023-12-28T09:38:13;98168.32;;;8.18;100.00
79690;BME280;69156;55.932;-3.238;2023-12-28T09:40:41;98162.00;;;8.26;100.00
79690;BME280;69156;55.932;-3.238;2023-12-28T09:43:13;98154.47;;;8.25;100.00
79690;BME280;69156;55.932;-3.238;2023-12-28T09:45:28;98155.42;;;8.21;100.00
79690;BME280;69156;55.932;-3.238;2023-12-28T09:47:54;98159.88;;;8.20;100.00
79690;BME280;69156;55.932;-3.238;2023-12-28T09:50:20;98152.66;;;8.27;100.00
79690;BME280;69156;55.932;-3.238;2023-12-28T09:52:45;98152.42;;;8.30;100.00
79690;BME280;69156;55.932;-3.238;2023-12-28T09:55:11;98155.87;;;8.32;100.00
79690;BME280;69156;55.932;-3.238;2023-12-28T09:57:37;98151.14;;;8.43;100.00
79690;BME280;69156;55.932;-3.238;2023-12-28T10:00:02;98160.43;;;8.48;100.00
79690;BME280;69156;55.932;-3.238;2023-12-28T10:02:27;98149.39;;;8.55;100.00
79690;BME280;69156;55.932;-3.238;2023-12-28T10:04:52;98148.31;;;8.57;100.00
79690;BME280;69156;55.932;-3.238;2023-12-28T10:07:17;98138.59;;;8.54;100.00
79690;BME280;69156;55.932;-3.238;2023-12-28T10:09:42;98144.81;;;8.58;100.00
79690;BME280;69156;55.932;-3.238;2023-12-28T10:12:08;98120.88;;;8.54;100.00
79690;BME280;69156;55.932;-3.238;2023-12-28T10:14:34;98135.67;;;8.66;100.00
79690;BME280;69156;55.932;-3.238;2023-12-28T10:16:59;98139.52;;;8.62;100.00
79690;BME280;69156;55.932;-3.238;2023-12-28T10:19:25;98133.01;;;8.54;100.00
79690;BME280;69156;55.932;-3.238;2023-12-28T10:21:51;98136.17;;;8.74;100.00
79690;BME280;69156;55.932;-3.238;2023-12-28T10:24:18;98132.35;;;8.54;100.00
79690;BME280;69156;55.932;-3.238;2023-12-28T10:26:43;98131.53;;;8.56;100.00
79690;BME280;69156;55.932;-3.238;2023-12-28T10:29:12;98122.76;;;8.50;100.00
79690;BME280;69156;55.932;-3.238;2023-12-28T10:31:41;98126.08;;;8.54;100.00
79690;BME280;69156;55.932;-3.238;2023-12-28T10:34:03;98123.81;;;8.46;100.00
79690;BME280;69156;55.932;-3.238;2023-12-28T10:36:30;98114.16;;;8.60;100.00
79690;BME280;69156;55.932;-3.238;2023-12-28T10:38:56;98105.38;;;8.50;100.00
79690;BME280;69156;55.932;-3.238;2023-12-28T10:41:22;98107.87;;;8.61;100.00
79690;BME280;69156;55.932;-3.238;2023-12-28T10:43:53;98100.42;;;8.68;100.00
79690;BME280;69156;55.932;-3.238;2023-12-28T10:46:21;98087.91;;;8.77;100.00
79690;BME280;69156;55.932;-3.238;2023-12-28T10:48:41;98082.81;;;8.79;100.00
79690;BME280;69156;55.932;-3.238;2023-12-28T10:51:04;98094.04;;;8.83;100.00
79690;BME280;69156;55.932;-3.238;2023-12-28T10:53:36;98061.03;;;8.80;100.00
79690;BME280;69156;55.932;-3.238;2023-12-28T10:56:03;98063.80;;;8.92;100.00
79690;BME280;69156;55.932;-3.238;2023-12-28T10:58:24;98052.96;;;8.89;100.00
79690;BME280;69156;55.932;-3.238;2023-12-28T11:00:51;98054.71;;;8.87;100.00
79690;BME280;69156;55.932;-3.238;2023-12-28T11:03:12;98051.93;;;9.01;100.00
79690;BME280;69156;55.932;-3.238;2023-12-28T11:05:37;98059.21;;;9.04;100.00
79690;BME280;69156;55.932;-3.238;2023-12-28T11:08:02;98052.96;;;9.11;100.00
79690;BME280;69156;55.932;-3.238;2023-12-28T11:10:30;98059.93;;;9.12;100.00
79690;BME280;69156;55.932;-3.238;2023-12-28T11:12:54;98033.20;;;8.93;100.00
79690;BME280;69156;55.932;-3.238;2023-12-28T11:15:19;98050.93;;;8.95;100.00
79690;BME280;69156;55.932;-3.238;2023-12-28T11:17:44;98040.21;;;8.96;100.00
79690;BME280;69156;55.932;-3.238;2023-12-28T11:20:10;98054.43;;;8.93;100.00
79690;BME280;69156;55.932;-3.238;2023-12-28T11:22:35;98043.55;;;8.77;100.00
79690;BME280;69156;55.932;-3.238;2023-12-28T11:25:00;98039.08;;;8.86;100.00
79690;BME280;69156;55.932;-3.238;2023-12-28T11:27:33;98032.18;;;8.62;100.00
79690;BME280;69156;55.932;-3.238;2023-12-28T11:29:52;98016.32;;;8.72;100.00
79690;BME280;69156;55.932;-3.238;2023-12-28T11:32:17;97995.60;;;8.66;100.00
79690;BME280;69156;55.932;-3.238;2023-12-28T11:34:42;98011.80;;;8.63;100.00
79690;BME280;69156;55.932;-3.238;2023-12-28T11:37:13;97991.49;;;8.69;100.00
79690;BME280;69156;55.932;-3.238;2023-12-28T11:39:35;98000.62;;;8.78;100.00
79690;BME280;69156;55.932;-3.238;2023-12-28T11:42:02;97988.96;;;8.85;100.00
79690;BME280;69156;55.932;-3.238;2023-12-28T11:44:26;97997.70;;;8.78;100.00
79690;BME280;69156;55.932;-3.238;2023-12-28T11:46:51;98000.12;;;8.88;100.00
79690;BME280;69156;55.932;-3.238;2023-12-28T11:49:25;97993.72;;;8.86;100.00
79690;BME280;69156;55.932;-3.238;2023-12-28T11:51:41;98003.88;;;8.91;100.00
79690;BME280;69156;55.932;-3.238;2023-12-28T11:54:07;97999.42;;;8.91;100.00
79690;BME280;69156;55.932;-3.238;2023-12-28T11:56:32;98002.36;;;8.91;100.00
79690;BME280;69156;55.932;-3.238;2023-12-28T11:58:58;98001.99;;;8.97;100.00
79690;BME280;69156;55.932;-3.238;2023-12-28T12:01:23;97987.63;;;8.95;100.00
79690;BME280;69156;55.932;-3.238;2023-12-28T12:03:49;97984.12;;;8.95;100.00
79690;BME280;69156;55.932;-3.238;2023-12-28T12:06:14;97979.04;;;8.79;100.00
79690;BME280;69156;55.932;-3.238;2023-12-28T12:08:40;97991.42;;;8.86;100.00
79690;BME280;69156;55.932;-3.238;2023-12-28T12:11:06;97974.82;;;8.82;100.00
79690;BME280;69156;55.932;-3.238;2023-12-28T12:13:31;97966.41;;;8.87;100.00
79690;BME280;69156;55.932;-3.238;2023-12-28T12:15:56;97954.92;;;8.95;100.00
79690;BME280;69156;55.932;-3.238;2023-12-28T12:18:21;97955.05;;;8.94;100.00
79690;BME280;69156;55.932;-3.238;2023-12-28T12:20:47;97934.36;;;8.94;100.00
79690;BME280;69156;55.932;-3.238;2023-12-28T12:23:12;97914.89;;;9.02;100.00
79690;BME280;69156;55.932;-3.238;2023-12-28T12:25:41;97930.77;;;8.98;100.00
79690;BME280;69156;55.932;-3.238;2023-12-28T12:28:05;97922.22;;;9.07;100.00
79690;BME280;69156;55.932;-3.238;2023-12-28T12:30:30;97920.62;;;9.12;100.00
79690;BME280;69156;55.932;-3.238;2023-12-28T12:32:55;97919.52;;;9.05;100.00
79690;BME280;69156;55.932;-3.238;2023-12-28T12:35:20;97907.51;;;8.89;100.00
79690;BME280;69156;55.932;-3.238;2023-12-28T12:37:45;97904.14;;;9.09;100.00
79690;BME280;69156;55.932;-3.238;2023-12-28T12:40:12;97894.35;;;9.23;100.00